createdAt,value
2019-05-03T00:02:02.171Z,99703.62
2019-05-03T00:04:31.582Z,99700.58
2019-05-03T00:06:59.820Z,99704.98
2019-05-03T00:09:28.157Z,99708.52
2019-05-03T00:11:56.275Z,99713.72
2019-05-03T00:14:24.509Z,99713.48
2019-05-03T00:16:52.671Z,99716.89
2019-05-03T00:19:21.923Z,99718.38
2019-05-03T00:21:52.468Z,99715.84
2019-05-03T00:24:20.225Z,99717.59
2019-05-03T00:26:48.387Z,99717.38
2019-05-03T00:29:16.569Z,99718.04
2019-05-03T00:31:44.865Z,99723.97
2019-05-03T00:34:16.275Z,99720.48
2019-05-03T00:36:48.532Z,99718.11
2019-05-03T00:39:35.665Z,99713.69
2019-05-03T00:42:03.881Z,99709.45
2019-05-03T00:44:31.999Z,99714.03
2019-05-03T00:47:02.117Z,99718.63
2019-05-03T00:49:31.931Z,99712.39
2019-05-03T00:52:02.206Z,99716.94
2019-05-03T00:54:31.683Z,99712.63
2019-05-03T00:57:00.020Z,99710.13
2019-05-03T00:59:28.225Z,99708.78
2019-05-03T01:01:56.389Z,99716.88
2019-05-03T01:04:24.572Z,99720.47
2019-05-03T01:06:52.786Z,99711.06
2019-05-03T01:09:23.479Z,99713.77
2019-05-03T01:11:52.482Z,99712.97
2019-05-03T01:14:22.587Z,99712.61
2019-05-03T01:16:52.166Z,99711.05
2019-05-03T01:19:22.589Z,99717.48
2019-05-03T01:21:51.532Z,99716.38
2019-05-03T01:24:21.626Z,99722.66
2019-05-03T01:26:49.704Z,99716.79
2019-05-03T01:29:17.842Z,99723.48
2019-05-03T01:31:45.974Z,99723.68
2019-05-03T01:34:14.092Z,99719.34
2019-05-03T01:36:42.737Z,99712.27
2019-05-03T01:39:12.639Z,99717.33
2019-05-03T01:41:41.693Z,99724.73
2019-05-03T01:44:09.912Z,99732.94
2019-05-03T01:46:38.110Z,99728.56
2019-05-03T01:49:18.732Z,99727.41
2019-05-03T01:52:02.208Z,99727.02
2019-05-03T01:54:32.148Z,99725.98
2019-05-03T01:57:02.256Z,99737.29
2019-05-03T01:59:32.070Z,99739.42
2019-05-03T02:02:19.270Z,99743.92
2019-05-03T02:04:53.353Z,99736.56
2019-05-03T02:07:22.335Z,99751.19
2019-05-03T02:09:52.017Z,99744.84
2019-05-03T02:12:22.195Z,99753.55
2019-05-03T02:14:51.672Z,99755.91
2019-05-03T02:17:39.308Z,99757.48
2019-05-03T02:20:07.472Z,99768.67
2019-05-03T02:22:35.707Z,99764.33
2019-05-03T02:25:04.006Z,99774.66
2019-05-03T02:27:32.562Z,99779.51
2019-05-03T02:30:03.227Z,99774.98
2019-05-03T02:32:33.088Z,99779.08
2019-05-03T02:35:02.827Z,99777.32
2019-05-03T02:37:32.884Z,99778.61
2019-05-03T02:40:03.884Z,99783.94
2019-05-03T02:42:30.397Z,99784.42
2019-05-03T02:44:59.492Z,99784.49
2019-05-03T02:47:55.151Z,99789.27
2019-05-03T02:50:25.804Z,99792.36
2019-05-03T02:52:55.074Z,99791.05
2019-05-03T02:55:22.400Z,99789.36
2019-05-03T02:57:50.579Z,99797.58
2019-05-03T03:00:21.856Z,99796.53
2019-05-03T03:03:16.580Z,99796.81
2019-05-03T03:05:46.395Z,99794.44
2019-05-03T03:08:16.352Z,99788.64
2019-05-03T03:10:45.658Z,99799.27
2019-05-03T03:13:16.333Z,99798.56
2019-05-03T03:18:59.077Z,99800.86
2019-05-03T03:21:36.019Z,99801.56
2019-05-03T03:24:10.112Z,99806.45
2019-05-03T03:26:43.116Z,99810.80
2019-05-03T03:29:11.216Z,99824.89
2019-05-03T03:32:19.440Z,99817.67
2019-05-03T03:35:38.910Z,99821.69
2019-05-03T03:38:08.444Z,99820.33
2019-05-03T03:40:38.092Z,99819.42
2019-05-03T03:43:07.558Z,99815.52
2019-05-03T03:45:37.269Z,99821.98
2019-05-03T03:48:05.806Z,99816.94
2019-05-03T03:50:36.207Z,99819.96
2019-05-03T03:53:07.928Z,99824.19
2019-05-03T03:56:16.079Z,99820.66
2019-05-03T03:58:46.406Z,99824.19
2019-05-03T04:01:15.656Z,99827.83
2019-05-03T04:03:45.950Z,99832.44
2019-05-03T04:06:15.417Z,99832.80
2019-05-03T04:08:45.350Z,99832.87
2019-05-03T04:11:15.570Z,99841.89
2019-05-03T04:13:45.328Z,99837.23
2019-05-03T04:16:29.926Z,99848.02
2019-05-03T04:21:59.364Z,99842.82
2019-05-03T04:24:48.293Z,99845.27
2019-05-03T04:27:23.304Z,99854.11
2019-05-03T04:29:48.146Z,99863.37
2019-05-03T04:32:16.349Z,99864.58
2019-05-03T04:34:45.299Z,99868.92
2019-05-03T04:37:16.218Z,99872.79
2019-05-03T04:39:45.670Z,99882.59
2019-05-03T04:42:16.683Z,99880.16
2019-05-03T04:44:45.686Z,99885.41
2019-05-03T04:47:15.672Z,99890.61
2019-05-03T04:49:45.974Z,99895.04
2019-05-03T04:52:16.205Z,99896.55
2019-05-03T04:54:51.221Z,99895.91
2019-05-03T04:57:35.173Z,99900.30
2019-05-03T04:59:49.293Z,99897.77
2019-05-03T05:02:17.492Z,99905.75
2019-05-03T05:04:46.262Z,99915.22
2019-05-03T05:07:15.832Z,99918.10
2019-05-03T05:09:45.808Z,99913.61
2019-05-03T05:12:16.188Z,99905.38
2019-05-03T05:14:45.769Z,99911.78
2019-05-03T05:17:16.307Z,99914.84
2019-05-03T05:22:40.537Z,99929.66
2019-05-03T05:28:10.213Z,99925.28
2019-05-03T05:30:38.395Z,99931.30
2019-05-03T05:35:44.303Z,99932.20
2019-05-03T05:38:12.220Z,99930.56
2019-05-03T05:40:40.395Z,99938.36
2019-05-03T05:43:08.507Z,99942.50
2019-05-03T05:45:36.693Z,99934.12
2019-05-03T05:48:08.715Z,99948.52
2019-05-03T05:50:39.335Z,99941.58
2019-05-03T05:53:07.429Z,99948.67
2019-05-03T05:55:55.043Z,99952.08
2019-05-03T05:58:46.562Z,99955.56
2019-05-03T06:01:35.350Z,99955.85
2019-05-03T06:04:05.252Z,99960.16
2019-05-03T06:07:01.355Z,99961.72
2019-05-03T06:09:48.439Z,99963.99
2019-05-03T06:12:22.141Z,99960.67
2019-05-03T06:14:54.721Z,99965.16
2019-05-03T06:17:45.124Z,99964.48
2019-05-03T06:20:32.585Z,99974.00
2019-05-03T06:23:10.902Z,99753.80
2019-05-03T06:25:41.348Z,99977.64
2019-05-03T06:28:25.215Z,99981.04
2019-05-03T06:31:10.933Z,99983.84
2019-05-03T06:33:39.055Z,99982.30
2019-05-03T06:36:07.312Z,99981.58
2019-05-03T06:38:35.467Z,99986.73
2019-05-03T06:41:04.734Z,99989.27
2019-05-03T06:43:34.811Z,99979.34
2019-05-03T06:46:05.199Z,99982.44
2019-05-03T06:48:32.937Z,99979.80
2019-05-03T06:51:08.694Z,99981.06
2019-05-03T06:53:31.032Z,99982.69
2019-05-03T06:55:59.125Z,99987.00
2019-05-03T06:58:33.163Z,99986.72
2019-05-03T07:01:25.147Z,99983.55
2019-05-03T07:04:08.597Z,99980.41
2019-05-03T07:06:57.814Z,99985.89
2019-05-03T07:09:44.840Z,99979.95
2019-05-03T07:12:14.823Z,99976.59
2019-05-03T07:14:44.871Z,99975.47
2019-05-03T07:17:14.525Z,99977.77
2019-05-03T07:19:42.940Z,99988.08
2019-05-03T07:22:11.152Z,99986.05
2019-05-03T07:24:40.924Z,99987.23
2019-05-03T07:27:09.525Z,99978.17
2019-05-03T07:29:37.787Z,99982.75
2019-05-03T07:32:05.911Z,99990.55
2019-05-03T07:34:35.150Z,99990.95
2019-05-03T07:37:03.375Z,99984.59
2019-05-03T07:39:32.164Z,99984.12
2019-05-03T07:42:00.410Z,99979.50
2019-05-03T07:44:28.820Z,99983.37
2019-05-03T07:46:56.935Z,99979.33
2019-05-03T07:49:25.172Z,99980.88
2019-05-03T07:51:55.288Z,99982.95
2019-05-03T07:54:24.825Z,99973.88
2019-05-03T07:56:58.466Z,99975.88
2019-05-03T07:59:26.671Z,99980.11
2019-05-03T08:01:56.984Z,99981.83
2019-05-03T08:04:25.535Z,99976.34
2019-05-03T08:06:54.955Z,99974.55
2019-05-03T08:09:24.578Z,99974.16
2019-05-03T08:11:54.705Z,99975.87
2019-05-03T08:14:22.858Z,99968.17
2019-05-03T08:16:51.044Z,99970.55
2019-05-03T08:19:19.261Z,99976.82
2019-05-03T08:21:47.497Z,99980.22
2019-05-03T08:24:15.655Z,99989.77
2019-05-03T08:26:45.324Z,99984.58
2019-05-03T08:29:19.004Z,99987.88
2019-05-03T08:32:10.313Z,99981.83
2019-05-03T08:35:00.588Z,99981.77
2019-05-03T08:37:39.556Z,99970.76
2019-05-03T08:40:08.027Z,99973.84
2019-05-03T08:42:36.195Z,99977.81
2019-05-03T08:45:04.580Z,99988.08
2019-05-03T08:47:34.527Z,99978.66
2019-05-03T08:50:02.743Z,99978.77
2019-05-03T08:52:31.185Z,99977.97
2019-05-03T08:54:59.564Z,99975.77
2019-05-03T08:57:27.803Z,99975.66
2019-05-03T08:59:56.072Z,99981.91
2019-05-03T09:02:25.839Z,99978.30
2019-05-03T09:04:54.684Z,99980.86
2019-05-03T09:07:25.131Z,99979.68
2019-05-03T09:10:17.558Z,99983.33
2019-05-03T09:13:04.116Z,99974.56
2019-05-03T09:15:34.982Z,99975.33
2019-05-03T09:18:04.806Z,99981.93
2019-05-03T09:20:32.721Z,99979.06
2019-05-03T09:23:01.031Z,99984.51
2019-05-03T09:25:29.270Z,99986.58
2019-05-03T09:27:57.570Z,99981.32
2019-05-03T09:30:25.999Z,99975.63
2019-05-03T09:32:55.680Z,99982.16
2019-05-03T09:35:32.096Z,99969.00
2019-05-03T09:37:55.536Z,99969.21
2019-05-03T09:40:24.559Z,99961.34
2019-05-03T09:42:54.628Z,99960.88
2019-05-03T09:45:24.603Z,99974.52
2019-05-03T09:47:55.038Z,99967.88
2019-05-03T09:50:24.579Z,99974.02
2019-05-03T09:52:55.238Z,99966.17
2019-05-03T09:55:35.920Z,99963.06
2019-05-03T09:58:05.513Z,99961.48
2019-05-03T10:00:33.988Z,99973.13
2019-05-03T10:03:02.160Z,99965.25
2019-05-03T10:05:30.336Z,99970.73
2019-05-03T10:07:58.509Z,99967.66
2019-05-03T10:10:26.649Z,99975.48
2019-05-03T10:12:55.094Z,99971.85
2019-05-03T10:15:56.809Z,99971.79
2019-05-03T10:18:25.428Z,99970.20
2019-05-03T10:20:56.170Z,99960.12
2019-05-03T10:23:40.144Z,99956.84
2019-05-03T10:26:08.852Z,99957.68
2019-05-03T10:28:37.133Z,99846.33
2019-05-03T10:31:07.748Z,99952.12
2019-05-03T10:33:48.504Z,99963.76
2019-05-03T10:36:16.635Z,99953.12
2019-05-03T10:38:46.051Z,99960.85
2019-05-03T10:41:14.516Z,99957.97
2019-05-03T10:43:44.930Z,99954.52
2019-05-03T10:46:12.595Z,99951.88
2019-05-03T10:48:40.753Z,99952.73
2019-05-03T10:51:08.868Z,99949.20
2019-05-03T10:53:40.587Z,99950.94
2019-05-03T10:59:16.952Z,99955.86
2019-05-03T11:02:04.153Z,99951.48
2019-05-03T11:04:35.611Z,99957.20
2019-05-03T11:07:05.461Z,99956.66
2019-05-03T11:09:47.969Z,99943.52
2019-05-03T11:12:05.340Z,99948.42
2019-05-03T11:14:35.093Z,99935.88
2019-05-03T11:17:05.503Z,99932.66
2019-05-03T11:19:34.725Z,99939.86
2019-05-03T11:22:03.004Z,99944.09
2019-05-03T11:24:31.318Z,99949.88
2019-05-03T11:27:01.272Z,99935.72
2019-05-03T11:29:29.534Z,99943.38
2019-05-03T11:32:16.415Z,99938.02
2019-05-03T11:35:07.147Z,99936.78
2019-05-03T11:37:42.922Z,99942.50
2019-05-03T11:40:15.729Z,99940.03
2019-05-03T11:42:44.781Z,99936.84
2019-05-03T11:45:15.179Z,99944.39
2019-05-03T11:47:45.438Z,99950.56
2019-05-03T11:50:14.827Z,99954.65
2019-05-03T11:52:42.917Z,99960.18
2019-05-03T11:55:12.116Z,99952.53
2019-05-03T11:57:40.572Z,99957.55
2019-05-03T12:00:10.634Z,99944.59
2019-05-03T12:02:55.940Z,99938.09
2019-05-03T12:05:28.206Z,99942.23
2019-05-03T12:07:56.394Z,99936.18
2019-05-03T12:10:36.554Z,99932.58
2019-05-03T12:12:59.842Z,99934.33
2019-05-03T12:15:28.325Z,99931.35
2019-05-03T12:17:59.746Z,99930.40
2019-05-03T12:20:29.966Z,99923.52
2019-05-03T12:22:58.586Z,99923.88
2019-05-03T12:25:27.913Z,99924.15
2019-05-03T12:27:56.422Z,99920.27
2019-05-03T12:30:27.453Z,99916.11
2019-05-03T12:32:54.815Z,99914.94
2019-05-03T12:35:24.675Z,99910.13
2019-05-03T12:37:55.088Z,99908.45
2019-05-03T12:40:22.839Z,99919.02
2019-05-03T12:42:51.791Z,99606.67
2019-05-03T12:45:20.004Z,99911.16
2019-05-03T12:47:48.155Z,99905.81
2019-05-03T12:50:16.737Z,99912.15
2019-05-03T12:52:50.339Z,99914.56
2019-05-03T12:55:15.366Z,99914.41
2019-05-03T12:57:45.668Z,99916.59
2019-05-03T13:00:48.417Z,99913.95
2019-05-03T13:03:19.524Z,99907.75
2019-05-03T13:05:47.786Z,99914.08
2019-05-03T13:08:37.522Z,99892.20
2019-05-03T13:11:06.498Z,99882.21
2019-05-03T13:13:35.941Z,99885.27
2019-05-03T13:16:04.685Z,99890.34
2019-05-03T13:18:35.066Z,99886.52
2019-05-03T13:21:05.387Z,99893.62
2019-05-03T13:23:35.310Z,99892.02
2019-05-03T13:26:05.233Z,99889.28
2019-05-03T13:28:32.836Z,99888.83
2019-05-03T13:31:00.957Z,99883.73
2019-05-03T13:33:29.163Z,99880.59
2019-05-03T13:35:57.329Z,99874.95
2019-05-03T13:38:25.522Z,99880.18
2019-05-03T13:40:54.336Z,99881.34
2019-05-03T13:43:22.635Z,99878.23
2019-05-03T13:45:50.853Z,99874.36
2019-05-03T13:48:20.896Z,99874.56
2019-05-03T13:50:48.982Z,99867.16
2019-05-03T13:53:17.281Z,99870.22
2019-05-03T13:55:45.485Z,99876.05
2019-05-03T13:58:14.747Z,99875.89
2019-05-03T14:00:45.136Z,99866.80
2019-05-03T14:03:15.052Z,99860.27
2019-05-03T14:05:44.594Z,99861.47
2019-05-03T14:08:15.417Z,99622.89
2019-05-03T14:10:45.224Z,99846.54
2019-05-03T14:13:12.972Z,99850.95
2019-05-03T14:15:41.338Z,99835.31
2019-05-03T14:18:09.671Z,99841.99
2019-05-03T14:20:56.734Z,99833.47
2019-05-03T14:23:25.339Z,99838.80
2019-05-03T14:25:55.254Z,99836.36
2019-05-03T14:28:25.210Z,99833.06
2019-05-03T14:30:54.813Z,99830.34
2019-05-03T14:33:24.862Z,99837.25
2019-05-03T14:35:54.696Z,99830.88
2019-05-03T14:38:25.295Z,99848.58
2019-05-03T14:40:55.109Z,99836.44
2019-05-03T14:43:24.715Z,99823.13
2019-05-03T14:45:54.826Z,99826.61
2019-05-03T14:48:24.888Z,99830.61
2019-05-03T14:50:54.971Z,99813.94
2019-05-03T14:53:22.727Z,99811.64
2019-05-03T14:56:05.057Z,99805.92
2019-05-03T14:58:56.094Z,99793.61
2019-05-03T15:01:31.460Z,99811.00
2019-05-03T15:03:59.616Z,99814.80
2019-05-03T15:06:27.870Z,99805.97
2019-05-03T15:08:56.100Z,99804.53
2019-05-03T15:11:24.256Z,99802.64
2019-05-03T15:13:52.387Z,99802.94
2019-05-03T15:16:20.592Z,99793.75
2019-05-03T15:18:48.763Z,99794.70
2019-05-03T15:21:16.966Z,99798.76
2019-05-03T15:23:45.392Z,99799.55
2019-05-03T15:26:13.610Z,99797.83
2019-05-03T15:28:41.920Z,99785.66
2019-05-03T15:31:10.124Z,99792.30
2019-05-03T15:33:38.407Z,99789.66
2019-05-03T15:36:06.549Z,99788.06
2019-05-03T15:38:34.852Z,99783.70
2019-05-03T15:41:05.413Z,99452.08
2019-05-03T15:43:46.516Z,99779.72
2019-05-03T15:46:31.057Z,99789.69
2019-05-03T15:49:00.560Z,99782.20
2019-05-03T15:51:29.030Z,99787.45
2019-05-03T15:53:57.329Z,99767.93
2019-05-03T15:56:25.617Z,99766.48
2019-05-03T15:58:55.181Z,99773.38
2019-05-03T16:01:24.903Z,99771.08
2019-05-03T16:03:53.189Z,99774.66
2019-05-03T16:06:21.372Z,99779.19
2019-05-03T16:08:49.484Z,99773.37
2019-05-03T16:11:17.656Z,99774.23
2019-05-03T16:13:46.125Z,99767.57
2019-05-03T16:16:15.142Z,99764.13
2019-05-03T16:18:44.884Z,99758.55
2019-05-03T16:21:14.665Z,99756.61
2019-05-03T16:23:46.306Z,99764.98
2019-05-03T16:26:14.331Z,99758.13
2019-05-03T16:28:50.607Z,99768.91
2019-05-03T16:31:20.998Z,99492.45
2019-05-03T16:33:48.273Z,99763.78
2019-05-03T16:36:16.628Z,99756.86
2019-05-03T16:38:45.087Z,99750.23
2019-05-03T16:41:17.491Z,99756.09
2019-05-03T16:43:45.379Z,99758.50
2019-05-03T16:46:14.551Z,99762.52
2019-05-03T16:48:44.732Z,99760.47
2019-05-03T16:51:15.208Z,99765.77
2019-05-03T16:53:44.505Z,99759.27
2019-05-03T16:56:16.771Z,99762.45
2019-05-03T16:58:44.475Z,99758.63
2019-05-03T17:01:15.944Z,99760.43
2019-05-03T17:03:50.638Z,99758.13
2019-05-03T17:06:34.846Z,99767.95
2019-05-03T17:09:21.929Z,99763.95
2019-05-03T17:12:11.176Z,99764.08
2019-05-03T17:14:39.405Z,99773.41
2019-05-03T17:17:07.778Z,99764.03
2019-05-03T17:19:35.949Z,99760.20
2019-05-03T17:22:05.595Z,99762.16
2019-05-03T17:24:35.334Z,99765.59
2019-05-03T17:27:03.683Z,99771.75
2019-05-03T17:29:32.308Z,99759.81
2019-05-03T17:32:00.456Z,99763.03
2019-05-03T17:34:28.684Z,99764.76
2019-05-03T17:36:56.934Z,99760.47
2019-05-03T17:39:42.983Z,99759.11
2019-05-03T17:42:21.717Z,99753.62
2019-05-03T17:44:50.855Z,99749.96
2019-05-03T17:47:19.002Z,99751.36
2019-05-03T17:49:47.200Z,99756.55
2019-05-03T17:52:34.461Z,99755.44
2019-05-03T17:55:35.207Z,99758.07
2019-05-03T17:58:24.279Z,99747.40
2019-05-03T18:01:08.341Z,99746.25
2019-05-03T18:03:39.031Z,99741.17
2019-05-03T18:06:17.055Z,99737.45
2019-05-03T18:09:06.840Z,99742.41
2019-05-03T18:11:46.355Z,99740.38
2019-05-03T18:14:14.951Z,99739.48
2019-05-03T18:16:44.310Z,99740.95
2019-05-03T18:19:12.620Z,99745.53
2019-05-03T18:21:40.999Z,99737.97
2019-05-03T18:24:09.275Z,99746.48
2019-05-03T18:26:37.577Z,99739.05
2019-05-03T18:29:05.909Z,99734.67
2019-05-03T18:31:34.148Z,99739.05
2019-05-03T18:34:02.506Z,99733.14
2019-05-03T18:36:32.327Z,99737.59
2019-05-03T18:39:00.550Z,99740.69
2019-05-03T18:41:28.970Z,99745.75
2019-05-03T18:44:07.119Z,99750.05
2019-05-03T18:46:39.657Z,99556.70
2019-05-03T18:49:07.781Z,99754.05
2019-05-03T18:51:35.944Z,99755.06
2019-05-03T18:54:07.097Z,99754.06
2019-05-03T18:56:34.712Z,99749.85
2019-05-03T18:59:04.968Z,99748.84
2019-05-03T19:01:34.698Z,99750.76
2019-05-03T19:04:31.083Z,99744.51
2019-05-03T19:07:01.302Z,99752.58
2019-05-03T19:09:37.346Z,99757.66
2019-05-03T19:12:35.691Z,99756.47
2019-05-03T19:15:05.298Z,99759.51
2019-05-03T19:18:01.756Z,99760.45
2019-05-03T19:20:30.492Z,99758.11
2019-05-03T19:22:58.677Z,99752.41
2019-05-03T19:25:26.872Z,99759.13
2019-05-03T19:27:55.017Z,99757.44
2019-05-03T19:30:24.487Z,99755.83
2019-05-03T19:32:52.748Z,99763.55
2019-05-03T19:35:20.910Z,99752.77
2019-05-03T19:37:49.087Z,99752.05
2019-05-03T19:40:18.822Z,99753.67
2019-05-03T19:42:47.112Z,99755.44
2019-05-03T19:45:15.360Z,99757.30
2019-05-03T19:47:44.733Z,99760.59
2019-05-03T19:50:13.241Z,99756.48
2019-05-03T19:53:14.364Z,99754.84
2019-05-03T19:55:42.202Z,99755.45
2019-05-03T19:58:10.420Z,99748.84
2019-05-03T20:00:57.664Z,99748.66
2019-05-03T20:03:35.240Z,99746.95
2019-05-03T20:06:14.491Z,99744.64
2019-05-03T20:08:46.749Z,99750.65
2019-05-03T20:11:15.736Z,99744.25
2019-05-03T20:13:45.157Z,99749.52
2019-05-03T20:16:15.457Z,99743.72
2019-05-03T20:18:45.404Z,99753.85
2019-05-03T20:21:14.996Z,99756.30
2019-05-03T20:23:44.722Z,99752.12
2019-05-03T20:26:14.903Z,99745.75
2019-05-03T20:28:44.840Z,99745.23
2019-05-03T20:31:13.497Z,99743.59
2019-05-03T20:33:41.751Z,99746.73
2019-05-03T20:36:09.965Z,99741.99
2019-05-03T20:38:38.180Z,99742.07
2019-05-03T20:41:06.322Z,99737.33
2019-05-03T20:43:54.931Z,99741.98
2019-05-03T20:46:42.136Z,99740.94
2019-05-03T20:49:11.538Z,99737.32
2019-05-03T20:51:39.803Z,99735.55
2019-05-03T20:54:08.138Z,99739.17
2019-05-03T20:56:36.346Z,99735.55
2019-05-03T20:59:05.429Z,99731.12
2019-05-03T21:01:34.772Z,99735.69
2019-05-03T21:04:04.703Z,99738.72
2019-05-03T21:06:35.769Z,99738.47
2019-05-03T21:09:04.689Z,99741.83
2019-05-03T21:11:33.217Z,99740.53
2019-05-03T21:14:01.350Z,99736.13
2019-05-03T21:16:38.795Z,99734.31
2019-05-03T21:19:20.423Z,99731.16
2019-05-03T21:21:52.113Z,99728.42
2019-05-03T21:24:26.361Z,99726.86
2019-05-03T21:27:05.042Z,99723.08
2019-05-03T21:32:10.339Z,99718.35
2019-05-03T21:34:38.532Z,99710.05
2019-05-03T21:37:06.853Z,99708.82
2019-05-03T21:39:35.143Z,99715.92
2019-05-03T21:42:04.740Z,99718.97
2019-05-03T21:44:34.261Z,99715.41
2019-05-03T21:47:20.681Z,99718.95
2019-05-03T21:49:48.981Z,99719.09
2019-05-03T21:52:17.223Z,99722.45
2019-05-03T21:54:45.385Z,99716.48
2019-05-03T21:57:14.248Z,99720.94
2019-05-03T21:59:44.806Z,99719.69
2019-05-03T22:02:15.283Z,99719.91
2019-05-03T22:04:44.427Z,99713.52
2019-05-03T22:07:12.763Z,99716.59
2019-05-03T22:09:41.027Z,99712.37
2019-05-03T22:12:09.200Z,99724.13
2019-05-03T22:14:45.382Z,99727.08
2019-05-03T22:17:32.207Z,99712.35
2019-05-03T22:20:07.695Z,99716.27
2019-05-03T22:22:45.247Z,99720.03
2019-05-03T22:25:15.066Z,99725.00
2019-05-03T22:27:45.479Z,99714.79
2019-05-03T22:30:14.025Z,99712.91
2019-05-03T22:32:44.406Z,99722.61
2019-05-03T22:35:12.155Z,99723.23
2019-05-03T22:37:40.376Z,99728.80
2019-05-03T22:40:08.784Z,99721.45
2019-05-03T22:42:37.006Z,99722.92
2019-05-03T22:45:05.491Z,99714.10
2019-05-03T22:47:35.614Z,99722.92
2019-05-03T22:50:05.422Z,99731.50
2019-05-03T22:52:35.062Z,99723.19
2019-05-03T22:55:04.713Z,99711.56
2019-05-03T22:57:34.873Z,99722.28
2019-05-03T23:00:06.059Z,99716.88
2019-05-03T23:02:32.724Z,99718.68
2019-05-03T23:05:00.863Z,99719.75
2019-05-03T23:07:29.000Z,99714.16
2019-05-03T23:09:57.155Z,99715.26
2019-05-03T23:12:25.279Z,99715.20
2019-05-03T23:14:55.088Z,99715.12
2019-05-03T23:17:25.015Z,99702.97
2019-05-03T23:19:57.590Z,99709.21
2019-05-03T23:22:29.057Z,99704.08
2019-05-03T23:24:57.196Z,99700.09
2019-05-03T23:27:25.314Z,99701.17
2019-05-03T23:29:54.518Z,99695.98
2019-05-03T23:32:24.505Z,99690.05
2019-05-03T23:34:54.457Z,99689.20
2019-05-03T23:37:22.614Z,99681.65
2019-05-03T23:39:50.783Z,99678.89
2019-05-03T23:42:18.902Z,99679.30
2019-05-03T23:44:47.070Z,99679.65
2019-05-03T23:47:42.198Z,99669.94
2019-05-03T23:50:13.588Z,99675.30
2019-05-03T23:52:41.720Z,99668.73
2019-05-03T23:55:22.223Z,99670.56
2019-05-03T23:57:50.300Z,99673.53
